Time;durP1;ratioP1;P1;durP2;ratioP2;P2;SDS_P1;SDS_P2;PMS_P1;PMS_P2;Temp;Humidity;BMP_temperature;BMP_pressure;BME280_temperature;BME280_humidity;BME280_pressure;Samples;Min_cycle;Max_cycle;Signal;HPM_P1;HPM_P2
2021/09/12 00:00:48;;;;;;;;;;;17.50;99.90;;;;;;5092016;28;20375;-86
2021/09/12 00:03:13;;;;;;;;;;;17.50;99.90;;;;;;5108135;28;20290;-85
2021/09/12 00:05:39;;;;;;;;;;;17.60;99.90;;;;;;5091875;28;19977;-86
2021/09/12 00:08:05;;;;;;;;;;;17.50;99.90;;;;;;5075881;28;20394;-85
2021/09/12 00:10:30;;;;;;;;;;;17.50;99.90;;;;;;5090799;28;20006;-87
2021/09/12 00:12:56;;;;;;;;;;;17.50;99.90;;;;;;5124197;27;19924;-87
2021/09/12 00:15:23;;;;;;;;;;;17.50;99.90;;;;;;5091470;28;20201;-87
2021/09/12 00:17:48;;;;;;;;;;;17.50;99.90;;;;;;5071095;28;20224;-87
2021/09/12 00:20:14;;;;;;;;;;;17.50;99.90;;;;;;5084306;28;19927;-87
2021/09/12 00:22:39;;;;;;;;;;;17.40;99.90;;;;;;5091935;28;19926;-87
2021/09/12 00:25:06;;;;;;;;;;;17.40;99.90;;;;;;5070625;28;20436;-87
2021/09/12 00:27:31;;;;;;;;;;;17.40;99.90;;;;;;5123097;27;19924;-87
2021/09/12 00:30:00;;;;;;;;;;;17.40;99.90;;;;;;5063032;28;19963;-86
2021/09/12 00:32:26;;;;;;;;;;;17.30;99.90;;;;;;5089988;28;19967;-86
2021/09/12 00:34:51;;;;;;;;;;;17.30;99.90;;;;;;5118589;27;19923;-87
2021/09/12 00:37:17;;;;;;;;;;;17.30;99.90;;;;;;5089041;28;20383;-86
2021/09/12 00:39:43;;;;;;;;;;;17.30;99.90;;;;;;5056955;28;19924;-86
2021/09/12 00:42:09;;;;;;;;;;;17.30;99.90;;;;;;5087615;28;20395;-85
2021/09/12 00:44:34;;;;;;;;;;;17.30;99.90;;;;;;5091158;28;19924;-85
2021/09/12 00:47:11;;;;;;;;;;;17.20;99.90;;;;;;5074426;28;19932;-86
2021/09/12 00:49:37;;;;;;;;;;;17.20;99.90;;;;;;5091278;28;19936;-86
2021/09/12 00:52:06;;;;;;;;;;;17.20;99.90;;;;;;5108586;28;19923;-86
2021/09/12 00:54:33;;;;;;;;;;;17.20;99.90;;;;;;5090060;28;20362;-87
2021/09/12 00:56:59;;;;;;;;;;;17.20;99.90;;;;;;5091817;28;19924;-86
2021/09/12 00:59:26;;;;;;;;;;;17.20;99.90;;;;;;5108048;28;19999;-87
2021/09/12 01:01:52;;;;;;;;;;;17.10;99.90;;;;;;5111486;27;20363;-85
2021/09/12 01:04:17;;;;;;;;;;;17.10;99.90;;;;;;5124289;27;19977;-86
2021/09/12 01:06:43;;;;;;;;;;;17.10;99.90;;;;;;5090894;28;19928;-85
2021/09/12 01:09:09;;;;;;;;;;;17.10;99.90;;;;;;5058039;28;20406;-86
2021/09/12 01:11:34;;;;;;;;;;;17.00;99.90;;;;;;5086257;28;19920;-87
2021/09/12 01:14:00;;;;;;;;;;;17.00;99.90;;;;;;5090605;28;20132;-86
2021/09/12 01:16:26;;;;;;;;;;;17.00;99.90;;;;;;5090772;28;19919;-87
2021/09/12 01:18:51;;;;;;;;;;;17.00;99.90;;;;;;5106359;28;19920;-86
2021/09/12 01:21:19;;;;;;;;;;;17.00;99.90;;;;;;5097481;28;19916;-86
2021/09/12 01:23:45;;;;;;;;;;;17.00;99.90;;;;;;5090583;28;19930;-86
2021/09/12 01:26:11;;;;;;;;;;;17.00;99.90;;;;;;5096488;28;19953;-85
2021/09/12 01:28:40;;;;;;;;;;;16.90;99.90;;;;;;5079546;28;19928;-86
2021/09/12 01:31:05;;;;;;;;;;;16.90;99.90;;;;;;5090468;28;19972;-85
2021/09/12 01:33:31;;;;;;;;;;;16.90;99.90;;;;;;5090057;28;20014;-87
2021/09/12 01:35:57;;;;;;;;;;;16.90;99.90;;;;;;5089617;28;20421;-86
2021/09/12 01:38:22;;;;;;;;;;;16.90;99.90;;;;;;5091135;28;19924;-87
2021/09/12 01:40:48;;;;;;;;;;;16.90;99.90;;;;;;5089419;28;19986;-85
2021/09/12 01:43:13;;;;;;;;;;;16.90;99.90;;;;;;5090639;28;19931;-86
2021/09/12 01:45:39;;;;;;;;;;;16.90;99.90;;;;;;5053184;28;19971;-85
2021/09/12 01:48:05;;;;;;;;;;;16.90;99.90;;;;;;5125677;27;20011;-85
2021/09/12 01:50:32;;;;;;;;;;;16.90;99.90;;;;;;5106186;28;19943;-87
2021/09/12 01:52:57;;;;;;;;;;;16.90;99.90;;;;;;5090547;28;19923;-85
2021/09/12 01:55:23;;;;;;;;;;;16.90;99.90;;;;;;5122951;27;19976;-86
2021/09/12 01:57:49;;;;;;;;;;;16.90;99.90;;;;;;5107021;28;19923;-86
2021/09/12 02:00:14;;;;;;;;;;;16.90;99.90;;;;;;5123837;27;19923;-87
2021/09/12 02:02:40;;;;;;;;;;;16.90;99.90;;;;;;5104210;27;19920;-86
2021/09/12 02:05:06;;;;;;;;;;;17.00;99.90;;;;;;5103660;28;19924;-86
2021/09/12 02:07:32;;;;;;;;;;;17.00;99.90;;;;;;5104141;28;20299;-86
2021/09/12 02:09:57;;;;;;;;;;;17.00;99.90;;;;;;5089210;28;19920;-85
2021/09/12 02:12:23;;;;;;;;;;;17.00;99.90;;;;;;5073268;28;20391;-87
2021/09/12 02:14:49;;;;;;;;;;;17.00;99.90;;;;;;5090360;28;19923;-87
2021/09/12 02:17:15;;;;;;;;;;;17.00;99.90;;;;;;5104867;28;19984;-86
2021/09/12 02:19:40;;;;;;;;;;;17.00;99.90;;;;;;5109736;28;20472;-86
2021/09/12 02:22:07;;;;;;;;;;;17.00;99.90;;;;;;5081105;28;19930;-87
2021/09/12 02:24:33;;;;;;;;;;;17.00;99.90;;;;;;5123672;28;19920;-87
2021/09/12 02:26:59;;;;;;;;;;;17.00;99.90;;;;;;5096591;28;19936;-87
2021/09/12 02:29:24;;;;;;;;;;;17.00;99.90;;;;;;5089509;28;20220;-86
2021/09/12 02:31:50;;;;;;;;;;;17.00;99.90;;;;;;5121939;27;19920;-85
2021/09/12 02:34:16;;;;;;;;;;;17.00;99.90;;;;;;5107184;28;19919;-86
2021/09/12 02:36:42;;;;;;;;;;;17.00;99.90;;;;;;5118260;28;20062;-85
2021/09/12 02:39:07;;;;;;;;;;;17.00;99.90;;;;;;5078794;28;20369;-86
2021/09/12 02:41:33;;;;;;;;;;;17.00;99.90;;;;;;5120157;28;19928;-85
2021/09/12 02:43:58;;;;;;;;;;;17.00;99.90;;;;;;5071865;28;19924;-85
2021/09/12 02:46:24;;;;;;;;;;;17.00;99.90;;;;;;5069851;28;20011;-86
2021/09/12 02:48:50;;;;;;;;;;;17.00;99.90;;;;;;5116872;28;20535;-86
2021/09/12 02:51:15;;;;;;;;;;;17.00;99.90;;;;;;5053419;28;19924;-86
2021/09/12 02:53:41;;;;;;;;;;;17.00;99.90;;;;;;5088279;28;19977;-86
2021/09/12 02:56:06;;;;;;;;;;;17.00;99.90;;;;;;5106734;28;19927;-86
2021/09/12 02:58:32;;;;;;;;;;;17.00;99.90;;;;;;5118888;27;19926;-87
2021/09/12 03:00:57;;;;;;;;;;;17.00;99.90;;;;;;5084565;28;19978;-85
2021/09/12 03:03:23;;;;;;;;;;;17.00;99.90;;;;;;5104174;28;19928;-86
2021/09/12 03:05:49;;;;;;;;;;;17.00;99.90;;;;;;5069793;28;20345;-86
2021/09/12 03:08:14;;;;;;;;;;;17.00;99.90;;;;;;5114501;27;20193;-86
2021/09/12 03:10:40;;;;;;;;;;;17.00;99.90;;;;;;5108431;28;20018;-86
2021/09/12 03:13:06;;;;;;;;;;;17.00;99.90;;;;;;5107488;28;19924;-87
2021/09/12 03:15:31;;;;;;;;;;;16.90;99.90;;;;;;5125059;27;20012;-87
2021/09/12 03:17:57;;;;;;;;;;;16.90;99.90;;;;;;5108511;28;19930;-86
2021/09/12 03:20:22;;;;;;;;;;;16.90;99.90;;;;;;5126864;27;19976;-86
2021/09/12 03:22:48;;;;;;;;;;;16.90;99.90;;;;;;5107279;28;19930;-85
2021/09/12 03:25:14;;;;;;;;;;;16.90;99.90;;;;;;5126785;27;19973;-87
2021/09/12 03:27:39;;;;;;;;;;;17.00;99.90;;;;;;5126896;27;19923;-86
2021/09/12 03:30:05;;;;;;;;;;;16.90;99.90;;;;;;5126027;27;20303;-85
2021/09/12 03:32:31;;;;;;;;;;;16.90;99.90;;;;;;5092466;28;19962;-87
2021/09/12 03:34:56;;;;;;;;;;;16.90;99.90;;;;;;5110931;28;19970;-86
2021/09/12 03:37:22;;;;;;;;;;;17.00;99.90;;;;;;5092392;28;19923;-87
2021/09/12 03:39:48;;;;;;;;;;;17.00;99.90;;;;;;5075132;28;19916;-86
2021/09/12 03:42:13;;;;;;;;;;;17.00;99.90;;;;;;5072492;28;19966;-85
2021/09/12 03:44:39;;;;;;;;;;;17.00;99.90;;;;;;5092057;28;19919;-86
2021/09/12 03:47:04;;;;;;;;;;;16.90;99.90;;;;;;5111023;27;19931;-86
2021/09/12 03:49:30;;;;;;;;;;;17.00;99.90;;;;;;5109132;28;19963;-86
2021/09/12 03:51:56;;;;;;;;;;;17.00;99.90;;;;;;5108707;28;19927;-85
2021/09/12 03:54:21;;;;;;;;;;;17.00;99.90;;;;;;5074892;28;19920;-86
2021/09/12 03:56:47;;;;;;;;;;;17.00;99.90;;;;;;5109607;28;20336;-86
2021/09/12 03:59:13;;;;;;;;;;;17.00;99.90;;;;;;5092018;28;19923;-86
2021/09/12 04:01:38;;;;;;;;;;;17.00;99.90;;;;;;5108073;28;20034;-87
2021/09/12 04:04:04;;;;;;;;;;;17.00;99.90;;;;;;5071514;28;19931;-87
2021/09/12 04:06:29;;;;;;;;;;;17.00;99.90;;;;;;5071429;28;19928;-87
2021/09/12 04:08:55;;;;;;;;;;;17.00;99.90;;;;;;5113663;27;19935;-86
2021/09/12 04:11:21;;;;;;;;;;;17.00;99.90;;;;;;5103925;28;19931;-86
2021/09/12 04:13:47;;;;;;;;;;;17.00;99.90;;;;;;5096550;28;19916;-87
2021/09/12 04:16:12;;;;;;;;;;;17.00;99.90;;;;;;5141655;27;20006;-86
2021/09/12 04:18:38;;;;;;;;;;;17.00;99.90;;;;;;5100360;28;19942;-85
2021/09/12 04:21:04;;;;;;;;;;;17.00;99.90;;;;;;5073335;28;19928;-87
2021/09/12 04:23:30;;;;;;;;;;;17.00;99.90;;;;;;5108188;28;19992;-86
2021/09/12 04:25:56;;;;;;;;;;;17.00;99.90;;;;;;5075951;28;20386;-86
2021/09/12 04:28:21;;;;;;;;;;;17.00;99.90;;;;;;5092281;28;20413;-86
2021/09/12 04:30:47;;;;;;;;;;;17.00;99.90;;;;;;5106859;28;20425;-87
2021/09/12 04:33:12;;;;;;;;;;;17.00;99.90;;;;;;5108423;28;19924;-85
2021/09/12 04:35:38;;;;;;;;;;;17.00;99.90;;;;;;5109531;28;19924;-86
2021/09/12 04:38:04;;;;;;;;;;;17.00;99.90;;;;;;5105451;28;20489;-87
2021/09/12 04:40:31;;;;;;;;;;;17.00;99.90;;;;;;5106287;27;19963;-87
2021/09/12 04:42:56;;;;;;;;;;;17.00;99.90;;;;;;5088666;28;20018;-87
2021/09/12 04:45:22;;;;;;;;;;;17.00;99.90;;;;;;5104504;28;20474;-86
2021/09/12 04:47:48;;;;;;;;;;;17.00;99.90;;;;;;5099811;28;19924;-86
2021/09/12 04:50:13;;;;;;;;;;;17.00;99.90;;;;;;5101959;28;19930;-87
2021/09/12 04:52:39;;;;;;;;;;;17.00;99.90;;;;;;5090618;28;19924;-86
2021/09/12 04:55:05;;;;;;;;;;;17.00;99.90;;;;;;5091680;28;20404;-86
2021/09/12 04:57:31;;;;;;;;;;;17.00;99.90;;;;;;5091422;28;19938;-87
2021/09/12 04:59:56;;;;;;;;;;;17.00;99.90;;;;;;5090269;28;19926;-86
2021/09/12 05:02:22;;;;;;;;;;;17.00;99.90;;;;;;5107450;28;19984;-84
2021/09/12 05:04:47;;;;;;;;;;;17.00;99.90;;;;;;5124820;27;19919;-86
2021/09/12 05:07:13;;;;;;;;;;;17.00;99.90;;;;;;5119412;27;20018;-87
2021/09/12 05:09:38;;;;;;;;;;;17.00;99.90;;;;;;5091612;28;19953;-87
2021/09/12 05:12:07;;;;;;;;;;;16.90;99.90;;;;;;5107811;28;20324;-88
2021/09/12 05:14:33;;;;;;;;;;;17.00;99.90;;;;;;5113817;27;19970;-86
2021/09/12 05:16:59;;;;;;;;;;;16.90;99.90;;;;;;5124292;27;20392;-86
2021/09/12 05:19:24;;;;;;;;;;;16.90;99.90;;;;;;5090865;28;19973;-87
2021/09/12 05:21:50;;;;;;;;;;;16.90;99.90;;;;;;5089307;28;19927;-86
2021/09/12 05:24:15;;;;;;;;;;;16.90;99.90;;;;;;5090816;28;19979;-87
2021/09/12 05:26:41;;;;;;;;;;;16.90;99.90;;;;;;5125525;27;19928;-87
2021/09/12 05:29:07;;;;;;;;;;;16.90;99.90;;;;;;5100992;28;19927;-86
2021/09/12 05:31:32;;;;;;;;;;;16.90;99.90;;;;;;5090506;28;19963;-85
2021/09/12 05:33:58;;;;;;;;;;;16.90;99.90;;;;;;5090489;28;19977;-86
2021/09/12 05:36:24;;;;;;;;;;;16.90;99.90;;;;;;5072318;28;19919;-86
2021/09/12 05:38:50;;;;;;;;;;;16.90;99.90;;;;;;5107677;28;19924;-86
2021/09/12 05:41:18;;;;;;;;;;;16.90;99.90;;;;;;5090161;28;20015;-87
2021/09/12 05:43:44;;;;;;;;;;;16.90;99.90;;;;;;5067784;28;20003;-86
2021/09/12 05:46:09;;;;;;;;;;;16.90;99.90;;;;;;5064497;28;19967;-87
2021/09/12 05:48:35;;;;;;;;;;;16.90;99.90;;;;;;5114115;27;19954;-86
2021/09/12 05:51:01;;;;;;;;;;;16.90;99.90;;;;;;5123296;27;19926;-85
2021/09/12 05:53:27;;;;;;;;;;;16.90;99.90;;;;;;5090152;28;19931;-87
2021/09/12 05:55:53;;;;;;;;;;;16.90;99.90;;;;;;5123750;27;19924;-86
2021/09/12 05:58:18;;;;;;;;;;;16.90;99.90;;;;;;5113312;27;20618;-86
2021/09/12 06:00:44;;;;;;;;;;;16.90;99.90;;;;;;5081679;28;20355;-87
2021/09/12 06:03:10;;;;;;;;;;;17.00;99.90;;;;;;5102277;28;20483;-86
2021/09/12 06:05:36;;;;;;;;;;;17.00;99.90;;;;;;5122648;27;19928;-87
2021/09/12 06:08:01;;;;;;;;;;;17.00;99.90;;;;;;5106575;28;20309;-86
2021/09/12 06:10:27;;;;;;;;;;;17.00;99.90;;;;;;5106419;28;19926;-86
2021/09/12 06:12:53;;;;;;;;;;;17.00;99.90;;;;;;5068640;28;19931;-86
2021/09/12 06:15:18;;;;;;;;;;;17.00;99.90;;;;;;5115613;28;19950;-86
2021/09/12 06:17:44;;;;;;;;;;;17.00;99.90;;;;;;5079931;28;19923;-87
2021/09/12 06:20:10;;;;;;;;;;;17.10;99.90;;;;;;5089661;28;19968;-86
2021/09/12 06:22:41;;;;;;;;;;;17.10;99.90;;;;;;5107112;28;20291;-86
2021/09/12 06:25:06;;;;;;;;;;;17.10;99.90;;;;;;5106836;28;19920;-86
2021/09/12 06:27:32;;;;;;;;;;;17.10;99.90;;;;;;5071311;28;20520;-87
2021/09/12 06:29:58;;;;;;;;;;;17.10;99.90;;;;;;5105788;28;19923;-85
2021/09/12 06:32:23;;;;;;;;;;;17.20;99.90;;;;;;5106351;28;20022;-86
2021/09/12 06:34:49;;;;;;;;;;;17.20;99.90;;;;;;5105289;28;19923;-86
2021/09/12 06:37:14;;;;;;;;;;;17.20;99.90;;;;;;5088172;28;19923;-87
2021/09/12 06:39:40;;;;;;;;;;;17.20;99.90;;;;;;5070629;28;19921;-87
2021/09/12 06:42:06;;;;;;;;;;;17.30;99.90;;;;;;5089242;28;19923;-86
2021/09/12 06:44:31;;;;;;;;;;;17.30;99.90;;;;;;5089920;28;19923;-87
2021/09/12 06:46:57;;;;;;;;;;;17.30;99.90;;;;;;5073176;28;19928;-87
2021/09/12 06:49:23;;;;;;;;;;;17.30;99.90;;;;;;5128129;27;19920;-86
2021/09/12 06:51:49;;;;;;;;;;;17.30;99.90;;;;;;5092508;28;19924;-86
2021/09/12 06:54:14;;;;;;;;;;;17.40;99.90;;;;;;5110840;28;19930;-86
2021/09/12 06:56:40;;;;;;;;;;;17.40;99.90;;;;;;5099690;28;20006;-86
2021/09/12 06:59:06;;;;;;;;;;;17.40;99.90;;;;;;5069046;28;19924;-88
2021/09/12 07:01:34;;;;;;;;;;;17.40;99.90;;;;;;5109963;28;19920;-87
2021/09/12 07:04:00;;;;;;;;;;;17.50;99.90;;;;;;5076633;28;20408;-86
2021/09/12 07:06:26;;;;;;;;;;;17.50;99.90;;;;;;5099872;28;19928;-86
2021/09/12 07:08:51;;;;;;;;;;;17.50;99.90;;;;;;5074845;28;19924;-89
2021/09/12 07:11:17;;;;;;;;;;;17.50;99.90;;;;;;5100840;28;19935;-90
2021/09/12 07:13:43;;;;;;;;;;;17.60;99.90;;;;;;5093203;28;20290;-90
2021/09/12 07:16:09;;;;;;;;;;;17.60;99.90;;;;;;5093130;28;19923;-90
2021/09/12 07:18:34;;;;;;;;;;;17.60;99.90;;;;;;5093830;28;19926;-89
2021/09/12 07:21:00;;;;;;;;;;;17.70;99.90;;;;;;5104878;28;19923;-89
2021/09/12 07:23:26;;;;;;;;;;;17.70;99.90;;;;;;5077215;28;19930;-89
2021/09/12 07:25:51;;;;;;;;;;;17.80;99.90;;;;;;5076525;28;19928;-89
2021/09/12 07:28:17;;;;;;;;;;;17.80;99.90;;;;;;5109619;28;19919;-87
2021/09/12 07:30:43;;;;;;;;;;;17.80;99.90;;;;;;5093550;28;20290;-87
2021/09/12 07:33:08;;;;;;;;;;;17.90;99.90;;;;;;5093216;28;19919;-86
2021/09/12 07:35:34;;;;;;;;;;;17.90;99.90;;;;;;5090754;28;19931;-86
2021/09/12 07:38:00;;;;;;;;;;;17.90;99.90;;;;;;5123037;27;19928;-88
2021/09/12 07:40:25;;;;;;;;;;;17.90;99.90;;;;;;5092712;28;20359;-87
2021/09/12 07:42:51;;;;;;;;;;;17.90;99.90;;;;;;5107878;28;19934;-86
2021/09/12 07:45:17;;;;;;;;;;;18.00;99.90;;;;;;5126410;27;19923;-86
2021/09/12 07:47:42;;;;;;;;;;;18.00;99.90;;;;;;5091922;28;21320;-86
2021/09/12 07:50:08;;;;;;;;;;;18.00;99.90;;;;;;5108747;28;19924;-87
2021/09/12 07:52:34;;;;;;;;;;;18.10;99.90;;;;;;5115127;27;20001;-90
2021/09/12 07:55:00;;;;;;;;;;;18.10;99.90;;;;;;5063215;28;19927;-92
2021/09/12 07:57:25;;;;;;;;;;;18.10;99.90;;;;;;5120106;27;19924;-91
2021/09/12 07:59:51;;;;;;;;;;;18.10;99.90;;;;;;5110818;28;19926;-94
2021/09/12 08:02:16;;;;;;;;;;;18.10;99.90;;;;;;5082952;28;19924;-89
2021/09/12 08:04:42;;;;;;;;;;;18.10;99.90;;;;;;5109742;28;20014;-96
2021/09/12 08:07:07;;;;;;;;;;;18.10;99.90;;;;;;5108727;28;19928;-96
2021/09/12 08:09:33;;;;;;;;;;;18.20;99.90;;;;;;5116823;28;19967;-96
2021/09/12 08:11:59;;;;;;;;;;;18.20;99.90;;;;;;5121858;27;19924;-89
2021/09/12 08:14:24;;;;;;;;;;;18.30;99.90;;;;;;5102654;28;20068;-91
2021/09/12 08:16:50;;;;;;;;;;;18.30;99.90;;;;;;5127423;27;19919;-92
2021/09/12 08:19:16;;;;;;;;;;;18.40;99.90;;;;;;5075606;28;19973;-89
2021/09/12 08:21:41;;;;;;;;;;;18.40;99.90;;;;;;5093288;28;19926;-91
2021/09/12 08:24:07;;;;;;;;;;;18.50;99.90;;;;;;5111007;27;19928;-91
2021/09/12 08:26:32;;;;;;;;;;;18.50;99.90;;;;;;5126789;27;19924;-92
2021/09/12 08:28:58;;;;;;;;;;;18.50;99.90;;;;;;5116040;27;19920;-92
2021/09/12 08:31:24;;;;;;;;;;;18.50;99.90;;;;;;5068050;28;19951;-91
2021/09/12 08:33:49;;;;;;;;;;;18.40;99.90;;;;;;5097957;28;19928;-92
2021/09/12 08:36:15;;;;;;;;;;;18.40;99.90;;;;;;5068382;28;19924;-94
2021/09/12 08:38:40;;;;;;;;;;;18.40;99.90;;;;;;5122808;27;19927;-93
2021/09/12 08:41:08;;;;;;;;;;;18.30;99.90;;;;;;5077588;28;19943;-90
2021/09/12 08:43:35;;;;;;;;;;;18.30;99.90;;;;;;5091144;28;19948;-89
2021/09/12 08:46:01;;;;;;;;;;;18.20;99.90;;;;;;5084031;28;19931;-90
2021/09/12 08:48:27;;;;;;;;;;;18.20;99.90;;;;;;5072122;28;20558;-88
2021/09/12 08:50:52;;;;;;;;;;;18.10;99.90;;;;;;5109973;28;19919;-89
2021/09/12 08:53:18;;;;;;;;;;;18.00;99.90;;;;;;5092692;28;20504;-93
2021/09/12 08:55:44;;;;;;;;;;;18.00;99.90;;;;;;5073657;28;19951;-90
2021/09/12 08:58:11;;;;;;;;;;;18.00;99.90;;;;;;5091094;28;20015;-92
2021/09/12 09:00:42;;;;;;;;;;;18.00;99.90;;;;;;5117110;27;20397;-87
2021/09/12 09:03:07;;;;;;;;;;;18.00;99.90;;;;;;5108447;27;20711;-89
2021/09/12 09:05:34;;;;;;;;;;;17.90;99.90;;;;;;5110841;27;20059;-88
2021/09/12 09:08:09;;;;;;;;;;;17.90;99.90;;;;;;5090186;28;19932;-90
2021/09/12 09:10:38;;;;;;;;;;;18.00;99.90;;;;;;5113358;27;19924;-88
2021/09/12 09:13:04;;;;;;;;;;;18.00;99.90;;;;;;5096199;28;19930;-86
2021/09/12 09:15:30;;;;;;;;;;;18.00;99.90;;;;;;5100991;28;19923;-88
2021/09/12 09:17:56;;;;;;;;;;;18.00;99.90;;;;;;5115605;27;19923;-87
2021/09/12 09:20:25;;;;;;;;;;;18.00;99.90;;;;;;5071136;28;19928;-89
2021/09/12 09:22:52;;;;;;;;;;;18.00;99.90;;;;;;5125141;27;20286;-90
2021/09/12 09:25:19;;;;;;;;;;;18.10;99.90;;;;;;5072942;28;19930;-89
2021/09/12 09:28:00;;;;;;;;;;;18.10;99.90;;;;;;5091451;28;19924;-89
2021/09/12 09:30:27;;;;;;;;;;;18.20;99.90;;;;;;5091099;28;19930;-90
2021/09/12 09:32:52;;;;;;;;;;;18.30;99.90;;;;;;5091624;28;19943;-92
2021/09/12 09:35:22;;;;;;;;;;;18.30;99.90;;;;;;5094312;28;20367;-90
2021/09/12 09:37:49;;;;;;;;;;;18.40;99.90;;;;;;5092231;28;19924;-90
2021/09/12 09:40:14;;;;;;;;;;;18.40;99.90;;;;;;5072547;28;20031;-90
2021/09/12 09:42:41;;;;;;;;;;;18.40;99.90;;;;;;5075074;28;20011;-89
2021/09/12 09:45:17;;;;;;;;;;;18.40;99.90;;;;;;5090489;28;20018;-90
2021/09/12 09:47:44;;;;;;;;;;;18.50;99.90;;;;;;5089976;28;19939;-91
2021/09/12 09:50:18;;;;;;;;;;;18.50;99.90;;;;;;5091173;28;19927;-90
2021/09/12 09:52:46;;;;;;;;;;;18.50;99.90;;;;;;5092175;28;19919;-92
2021/09/12 09:55:15;;;;;;;;;;;18.50;99.90;;;;;;5089843;28;20379;-90
2021/09/12 09:57:42;;;;;;;;;;;18.60;99.90;;;;;;5091834;28;19945;-90
2021/09/12 10:00:08;;;;;;;;;;;18.60;99.90;;;;;;5090726;28;19927;-89
2021/09/12 10:02:34;;;;;;;;;;;18.60;99.90;;;;;;5072237;28;20305;-89
2021/09/12 10:05:04;;;;;;;;;;;18.70;99.90;;;;;;5096418;28;19928;-88
2021/09/12 10:07:30;;;;;;;;;;;18.70;99.90;;;;;;5109617;28;19932;-87
2021/09/12 10:09:55;;;;;;;;;;;18.80;99.90;;;;;;5082799;28;19931;-90
2021/09/12 10:12:21;;;;;;;;;;;18.90;99.90;;;;;;5116494;27;19920;-89
2021/09/12 10:14:51;;;;;;;;;;;19.00;99.90;;;;;;5104777;28;20436;-89
2021/09/12 10:17:20;;;;;;;;;;;19.10;99.90;;;;;;5102851;28;20364;-89
2021/09/12 10:19:46;;;;;;;;;;;19.10;99.90;;;;;;5109186;27;19924;-89
2021/09/12 10:22:12;;;;;;;;;;;19.10;99.90;;;;;;5122275;28;19965;-89
2021/09/12 10:24:57;;;;;;;;;;;19.10;99.90;;;;;;5087954;28;19924;-88
2021/09/12 10:27:36;;;;;;;;;;;19.20;99.90;;;;;;5088690;28;19934;-88
2021/09/12 10:30:16;;;;;;;;;;;19.20;99.90;;;;;;5103846;28;20207;-89
2021/09/12 10:32:42;;;;;;;;;;;19.20;99.90;;;;;;5086965;28;19920;-89
2021/09/12 10:35:28;;;;;;;;;;;19.20;99.90;;;;;;5105690;28;19931;-89
2021/09/12 10:37:54;;;;;;;;;;;19.30;99.90;;;;;;5124673;27;19973;-88
2021/09/12 10:40:20;;;;;;;;;;;19.30;99.90;;;;;;5110069;27;19970;-89
2021/09/12 10:42:45;;;;;;;;;;;19.40;99.90;;;;;;5088016;28;19924;-88
2021/09/12 10:45:17;;;;;;;;;;;19.40;99.90;;;;;;5089725;28;19919;-89
2021/09/12 10:47:43;;;;;;;;;;;19.40;99.90;;;;;;5089454;28;19950;-88
2021/09/12 10:50:28;;;;;;;;;;;19.40;99.90;;;;;;5090210;28;20383;-88
2021/09/12 10:52:56;;;;;;;;;;;19.40;99.90;;;;;;5122164;28;19920;-85
2021/09/12 10:55:22;;;;;;;;;;;19.40;99.90;;;;;;5095716;28;20353;-85
2021/09/12 10:57:48;;;;;;;;;;;19.40;99.90;;;;;;5091819;28;20060;-84
2021/09/12 11:00:16;;;;;;;;;;;19.50;99.90;;;;;;5098505;28;19980;-88
2021/09/12 11:02:49;;;;;;;;;;;19.60;99.90;;;;;;5104605;28;20819;-88
2021/09/12 11:05:25;;;;;;;;;;;19.60;99.90;;;;;;5107062;28;20779;-87
2021/09/12 11:07:51;;;;;;;;;;;19.50;99.90;;;;;;5106595;28;19967;-85
2021/09/12 11:10:36;;;;;;;;;;;19.40;99.90;;;;;;5088031;28;19924;-86
2021/09/12 11:13:01;;;;;;;;;;;19.40;99.90;;;;;;5088947;28;19926;-87
2021/09/12 11:15:28;;;;;;;;;;;19.40;99.90;;;;;;5088158;28;19928;-85
2021/09/12 11:17:54;;;;;;;;;;;19.40;99.90;;;;;;5102851;28;19991;-86
2021/09/12 11:20:19;;;;;;;;;;;19.40;99.90;;;;;;5075411;28;20385;-87
2021/09/12 11:22:51;;;;;;;;;;;19.40;99.90;;;;;;5052717;28;19961;-86
2021/09/12 11:25:20;;;;;;;;;;;19.50;99.90;;;;;;5112277;28;19926;-87
2021/09/12 11:28:01;;;;;;;;;;;19.50;99.90;;;;;;5112976;28;20128;-86
2021/09/12 11:30:27;;;;;;;;;;;19.50;99.90;;;;;;5110257;27;19919;-86
2021/09/12 11:32:52;;;;;;;;;;;19.60;99.90;;;;;;5087181;28;19956;-86
2021/09/12 11:35:18;;;;;;;;;;;19.70;99.90;;;;;;5114599;27;19928;-86
2021/09/12 11:37:44;;;;;;;;;;;19.70;99.90;;;;;;5120171;27;19920;-86
2021/09/12 11:40:09;;;;;;;;;;;19.70;99.90;;;;;;5124206;27;19924;-86
2021/09/12 11:42:35;;;;;;;;;;;19.80;99.90;;;;;;5088551;27;19927;-86
2021/09/12 11:45:00;;;;;;;;;;;19.90;99.90;;;;;;5108473;27;19920;-89
2021/09/12 11:47:27;;;;;;;;;;;19.90;99.90;;;;;;5074981;28;19928;-90
2021/09/12 11:50:10;;;;;;;;;;;19.90;99.90;;;;;;5120722;27;20279;-88
2021/09/12 11:52:39;;;;;;;;;;;19.90;99.90;;;;;;5096514;27;19924;-88
2021/09/12 11:55:23;;;;;;;;;;;20.00;99.90;;;;;;5104045;27;19927;-89
2021/09/12 11:58:06;;;;;;;;;;;20.10;99.90;;;;;;5133067;27;20003;-90
2021/09/12 12:00:43;;;;;;;;;;;20.00;99.90;;;;;;5110010;27;19928;-91
2021/09/12 12:03:10;;;;;;;;;;;19.90;99.90;;;;;;5085442;28;19924;-88
2021/09/12 12:05:36;;;;;;;;;;;19.90;99.90;;;;;;5089845;28;19923;-90
2021/09/12 12:08:05;;;;;;;;;;;19.90;99.90;;;;;;5106378;28;19946;-90
2021/09/12 12:10:32;;;;;;;;;;;19.90;99.90;;;;;;5088579;28;20370;-88
2021/09/12 12:12:58;;;;;;;;;;;19.90;99.90;;;;;;5103851;28;19920;-87
2021/09/12 12:15:34;;;;;;;;;;;20.00;99.90;;;;;;5085369;28;19958;-87
2021/09/12 12:18:00;;;;;;;;;;;20.10;99.90;;;;;;5115337;27;19938;-85
2021/09/12 12:20:31;;;;;;;;;;;20.00;99.90;;;;;;5089647;28;19924;-85
2021/09/12 12:23:11;;;;;;;;;;;20.00;99.90;;;;;;5129011;27;19934;-86
2021/09/12 12:25:36;;;;;;;;;;;20.00;99.90;;;;;;5087090;28;19924;-86
2021/09/12 12:28:12;;;;;;;;;;;20.00;99.90;;;;;;5107801;28;19924;-86
2021/09/12 12:30:38;;;;;;;;;;;20.00;99.90;;;;;;5089996;28;19924;-85
2021/09/12 12:33:04;;;;;;;;;;;19.90;99.90;;;;;;5090294;28;20409;-86
2021/09/12 12:35:29;;;;;;;;;;;19.90;99.90;;;;;;5096307;28;20413;-85
2021/09/12 12:37:55;;;;;;;;;;;19.80;99.90;;;;;;5085826;28;20412;-86
2021/09/12 12:40:22;;;;;;;;;;;19.80;99.90;;;;;;5115745;27;19927;-86
2021/09/12 12:42:48;;;;;;;;;;;19.70;99.90;;;;;;5117862;27;19934;-86
2021/09/12 12:45:17;;;;;;;;;;;19.60;99.90;;;;;;5086651;28;19980;-86
2021/09/12 12:47:43;;;;;;;;;;;19.60;99.90;;;;;;5086902;28;19962;-85
2021/09/12 12:50:09;;;;;;;;;;;19.50;99.90;;;;;;5119023;27;19955;-87
2021/09/12 12:52:34;;;;;;;;;;;19.50;99.90;;;;;;5085627;28;20321;-86
2021/09/12 12:55:00;;;;;;;;;;;19.50;99.90;;;;;;5136059;27;19976;-87
2021/09/12 12:57:28;;;;;;;;;;;19.50;99.90;;;;;;5099983;28;19976;-86
2021/09/12 12:59:54;;;;;;;;;;;19.50;99.90;;;;;;5103403;28;19924;-87
2021/09/12 13:02:20;;;;;;;;;;;19.40;99.90;;;;;;5086392;28;20427;-87
2021/09/12 13:04:45;;;;;;;;;;;19.40;99.90;;;;;;5087433;28;19923;-87
2021/09/12 13:07:12;;;;;;;;;;;19.40;99.90;;;;;;5098651;28;19980;-87
2021/09/12 13:09:38;;;;;;;;;;;19.30;99.90;;;;;;5086568;28;19920;-87
2021/09/12 13:12:04;;;;;;;;;;;19.30;99.90;;;;;;5104440;28;20013;-87
2021/09/12 13:14:30;;;;;;;;;;;19.30;99.90;;;;;;5097631;28;20409;-87
2021/09/12 13:16:56;;;;;;;;;;;19.30;99.90;;;;;;5118953;27;19924;-87
2021/09/12 13:19:21;;;;;;;;;;;19.30;99.90;;;;;;5068158;28;19927;-86
2021/09/12 13:21:47;;;;;;;;;;;19.30;99.90;;;;;;5069366;28;20280;-86
2021/09/12 13:24:12;;;;;;;;;;;19.20;99.90;;;;;;5093457;28;19920;-86
2021/09/12 13:26:38;;;;;;;;;;;19.30;99.90;;;;;;5072487;28;19950;-85
2021/09/12 13:29:04;;;;;;;;;;;19.20;99.90;;;;;;5085680;28;20398;-85
2021/09/12 13:31:33;;;;;;;;;;;19.20;99.90;;;;;;5086725;28;20010;-85
2021/09/12 13:34:02;;;;;;;;;;;19.10;99.90;;;;;;5096079;28;20061;-84
2021/09/12 13:36:28;;;;;;;;;;;19.10;99.90;;;;;;5118709;27;20272;-85
2021/09/12 13:38:54;;;;;;;;;;;19.10;99.90;;;;;;5102698;28;19924;-85
2021/09/12 13:41:20;;;;;;;;;;;19.10;99.90;;;;;;5118993;27;19931;-86
2021/09/12 13:43:46;;;;;;;;;;;19.00;99.90;;;;;;5119696;27;20408;-85
2021/09/12 13:46:12;;;;;;;;;;;19.00;99.90;;;;;;5101194;28;19935;-84
2021/09/12 13:48:38;;;;;;;;;;;19.00;99.90;;;;;;5120275;27;20303;-85
2021/09/12 13:51:03;;;;;;;;;;;18.90;99.90;;;;;;5087867;28;20000;-85
2021/09/12 13:53:29;;;;;;;;;;;18.90;99.90;;;;;;5103230;28;19919;-85
2021/09/12 13:55:55;;;;;;;;;;;19.00;99.90;;;;;;5086680;28;20426;-85
2021/09/12 13:58:20;;;;;;;;;;;19.00;99.90;;;;;;5081709;28;19999;-85
2021/09/12 14:00:46;;;;;;;;;;;19.10;99.90;;;;;;5104000;28;20578;-85
2021/09/12 14:03:12;;;;;;;;;;;19.00;99.90;;;;;;5069446;28;19924;-84
2021/09/12 14:05:37;;;;;;;;;;;19.00;99.90;;;;;;5103950;28;20282;-88
2021/09/12 14:08:03;;;;;;;;;;;18.90;99.90;;;;;;5090322;27;19927;-89
2021/09/12 14:10:28;;;;;;;;;;;18.90;99.90;;;;;;5075508;28;19927;-91
2021/09/12 14:12:54;;;;;;;;;;;19.00;99.90;;;;;;5107101;27;19927;-86